createdAt,value
2022-08-07T00:02:36.830Z,98609.06
2022-08-07T00:05:09.476Z,98605.22
2022-08-07T00:07:40.937Z,98610.84
2022-08-07T00:10:27.330Z,98610.91
2022-08-07T00:13:17.619Z,98613.47
2022-08-07T00:15:56.077Z,98609.94
2022-08-07T00:18:29.993Z,98603.44
2022-08-07T00:21:03.515Z,98604.25
2022-08-07T00:23:41.633Z,98613.19
2022-08-07T00:26:31.260Z,98613.28
2022-08-07T00:29:07.161Z,98609.38
2022-08-07T00:31:42.073Z,98612.34
2022-08-07T00:34:12.505Z,98611.44
2022-08-07T00:36:46.699Z,98610.06
2022-08-07T00:39:17.531Z,98616.38
2022-08-07T00:42:01.362Z,98617.38
2022-08-07T00:44:38.205Z,98624.09
2022-08-07T00:47:25.453Z,98629.25
2022-08-07T00:50:20.123Z,98620.22
2022-08-07T00:52:53.140Z,98621.22
2022-08-07T00:55:25.378Z,98618.88
2022-08-07T00:58:13.598Z,98632.50
2022-08-07T01:00:54.048Z,98618.28
2022-08-07T01:03:54.661Z,98615.16
2022-08-07T01:06:15.747Z,98615.94
2022-08-07T01:08:53.472Z,98622.25
2022-08-07T01:12:23.438Z,98612.00
2022-08-07T01:14:16.713Z,98617.53
2022-08-07T01:16:50.607Z,98614.78
2022-08-07T01:19:25.302Z,98603.94
2022-08-07T01:21:59.806Z,98600.78
2022-08-07T01:24:35.993Z,98605.72
2022-08-07T01:27:19.751Z,98602.16
2022-08-07T01:29:50.799Z,98603.53
2022-08-07T01:32:23.096Z,98607.28
2022-08-07T01:34:56.358Z,98600.56
2022-08-07T01:37:30.826Z,98604.28
2022-08-07T01:40:05.234Z,98600.56
2022-08-07T01:42:57.007Z,98600.97
2022-08-07T01:45:36.422Z,98603.72
2022-08-07T01:48:20.999Z,98599.59
2022-08-07T01:50:59.932Z,98608.25
2022-08-07T01:54:08.808Z,98602.94
2022-08-07T01:56:51.154Z,98596.81
2022-08-07T01:59:31.107Z,98601.34
2022-08-07T02:02:10.464Z,98597.41
2022-08-07T02:04:55.755Z,98595.66
2022-08-07T02:07:36.207Z,98589.13
2022-08-07T02:10:29.521Z,98580.84
2022-08-07T02:13:04.466Z,98583.25
2022-08-07T02:15:47.105Z,98578.09
2022-08-07T02:18:19.206Z,98582.84
2022-08-07T02:20:57.285Z,98587.56
2022-08-07T02:23:31.153Z,98582.84
2022-08-07T02:26:33.149Z,98583.25
2022-08-07T02:29:02.882Z,98581.69
2022-08-07T02:31:35.473Z,98574.56
2022-08-07T02:34:11.596Z,98567.09
2022-08-07T02:36:54.546Z,98581.66
2022-08-07T02:39:42.855Z,98578.50
2022-08-07T02:42:22.761Z,98575.94
2022-08-07T02:44:58.468Z,98579.50
2022-08-07T02:47:35.051Z,98583.22
2022-08-07T02:50:19.319Z,98581.66
2022-08-07T02:53:00.899Z,98589.34
2022-08-07T02:56:04.416Z,98582.06
2022-08-07T02:58:37.279Z,98578.31
2022-08-07T03:01:18.721Z,98575.16
2022-08-07T03:03:51.014Z,98580.47
2022-08-07T03:06:33.249Z,98580.88
2022-08-07T03:09:11.415Z,98592.31
2022-08-07T03:11:52.605Z,98591.91
2022-08-07T03:14:33.809Z,98592.88
2022-08-07T03:17:04.526Z,98588.38
2022-08-07T03:19:37.486Z,98589.56
2022-08-07T03:22:18.785Z,98581.06
2022-08-07T03:24:49.502Z,98586.22
2022-08-07T03:27:30.609Z,98588.56
2022-08-07T03:30:17.678Z,98590.34
2022-08-07T03:32:58.660Z,98590.53
2022-08-07T03:35:43.960Z,98584.03
2022-08-07T03:38:29.632Z,98580.88
2022-08-07T03:41:03.369Z,98578.13
2022-08-07T03:43:36.088Z,98578.91
2022-08-07T03:46:18.626Z,98581.44
2022-08-07T03:49:02.617Z,98569.25
2022-08-07T03:51:47.703Z,98569.63
2022-08-07T03:54:36.255Z,98580.06
2022-08-07T03:58:34.573Z,98572.56
2022-08-07T04:00:11.851Z,98576.50
2022-08-07T04:02:56.733Z,98585.69
2022-08-07T04:05:39.623Z,98577.63
2022-08-07T04:08:18.454Z,98581.19
2022-08-07T04:10:53.801Z,98572.13
2022-08-07T04:14:10.268Z,98580.97
2022-08-07T04:16:37.714Z,98580.19
2022-08-07T04:19:17.636Z,98585.53
2022-08-07T04:21:59.579Z,98581.97
2022-08-07T04:24:41.276Z,98590.25
2022-08-07T04:27:20.449Z,98597.56
2022-08-07T04:30:01.718Z,98595.81
2022-08-07T04:32:44.977Z,98602.53
2022-08-07T04:35:21.862Z,98608.66
2022-08-07T04:38:05.510Z,98604.94
2022-08-07T04:40:51.362Z,98609.84
2022-08-07T04:44:11.723Z,98606.09
2022-08-07T04:46:59.199Z,98613.59
2022-08-07T04:49:39.721Z,98610.22
2022-08-07T04:52:30.641Z,98608.41
2022-08-07T04:58:12.484Z,98616.09
2022-08-07T04:58:33.733Z,98619.84
2022-08-07T05:01:20.606Z,98621.44
2022-08-07T05:04:08.601Z,98621.97
2022-08-07T05:06:56.317Z,98619.75
2022-08-07T05:09:47.052Z,98624.22
2022-08-07T05:12:32.663Z,98623.94
2022-08-07T05:15:23.325Z,98622.84
2022-08-07T05:18:08.581Z,98623.34
2022-08-07T05:20:46.374Z,98632.72
2022-08-07T05:23:29.942Z,98635.94
2022-08-07T05:26:13.348Z,98631.63
2022-08-07T05:28:56.394Z,98638.31
2022-08-07T05:31:38.511Z,98635.66
2022-08-07T05:34:15.946Z,98648.34
2022-08-07T05:36:53.317Z,98642.13
2022-08-07T05:40:17.166Z,98646.84
2022-08-07T05:42:33.723Z,98642.97
2022-08-07T05:45:26.275Z,98647.38
2022-08-07T05:48:07.746Z,98653.00
2022-08-07T05:50:46.096Z,98659.91
2022-08-07T05:54:12.982Z,98649.47
2022-08-07T05:56:13.884Z,98657.56
2022-08-07T05:58:53.791Z,98655.47
2022-08-07T06:01:35.697Z,98648.06
2022-08-07T06:04:09.758Z,98653.25
2022-08-07T06:06:46.087Z,98648.41
2022-08-07T06:09:20.221Z,98651.47
2022-08-07T06:12:11.315Z,98650.81
2022-08-07T06:14:49.468Z,98651.06
2022-08-07T06:17:22.522Z,98653.00
2022-08-07T06:20:04.751Z,98650.63
2022-08-07T06:22:40.384Z,98645.78
2022-08-07T06:25:34.843Z,98640.34
2022-08-07T06:28:07.631Z,98644.41
2022-08-07T06:30:45.863Z,98651.59
2022-08-07T06:33:22.553Z,98636.22
2022-08-07T06:36:12.427Z,98635.88
2022-08-07T06:38:59.353Z,98641.06
2022-08-07T06:42:00.787Z,98638.34
2022-08-07T06:44:54.850Z,98633.19
2022-08-07T06:47:47.787Z,98636.28
2022-08-07T06:50:20.714Z,98636.66
2022-08-07T06:52:57.148Z,98632.47
2022-08-07T06:55:53.574Z,98636.41
2022-08-07T06:58:28.731Z,98625.78
2022-08-07T07:01:09.951Z,98632.19
2022-08-07T07:03:50.027Z,98636.59
2022-08-07T07:06:29.308Z,98630.00
2022-08-07T07:08:59.664Z,98633.38
2022-08-07T07:12:09.131Z,98633.47
2022-08-07T07:14:27.343Z,98634.19
2022-08-07T07:17:02.488Z,98640.09
2022-08-07T07:19:57.993Z,98635.50
2022-08-07T07:22:36.879Z,98636.38
2022-08-07T07:26:32.658Z,98637.69
2022-08-07T07:28:42.369Z,98637.34
2022-08-07T07:31:21.853Z,98629.88
2022-08-07T07:33:58.364Z,98630.22
2022-08-07T07:36:33.776Z,98633.72
2022-08-07T07:39:07.084Z,98633.06
2022-08-07T07:42:01.983Z,98630.72
2022-08-07T07:44:34.383Z,98624.63
2022-08-07T07:47:14.179Z,98631.00
2022-08-07T07:50:33.021Z,98627.63
2022-08-07T07:52:47.536Z,98615.13
2022-08-07T07:55:21.920Z,98620.31
2022-08-07T07:57:58.399Z,98609.69
2022-08-07T08:00:34.258Z,98620.25
2022-08-07T08:03:16.622Z,98609.16
2022-08-07T08:05:55.035Z,98607.47
2022-08-07T08:08:37.049Z,98604.94
2022-08-07T08:11:16.064Z,98610.13
2022-08-07T08:13:52.924Z,98604.50
2022-08-07T08:16:32.747Z,98613.13
2022-08-07T08:20:15.647Z,98609.59
2022-08-07T08:22:15.936Z,98607.13
2022-08-07T08:25:24.570Z,98611.09
2022-08-07T08:28:01.893Z,98611.09
2022-08-07T08:30:42.857Z,98607.19
2022-08-07T08:33:28.889Z,98605.34
2022-08-07T08:36:05.322Z,98604.88
2022-08-07T08:38:43.101Z,98596.22
2022-08-07T08:41:31.484Z,98594.03
2022-08-07T08:44:29.359Z,98596.66
2022-08-07T08:47:11.670Z,98588.38
2022-08-07T08:50:04.984Z,98589.91
2022-08-07T08:52:51.679Z,98589.06
2022-08-07T08:55:55.581Z,98589.63
2022-08-07T08:58:38.649Z,98594.00
2022-08-07T09:01:18.657Z,98598.50
2022-08-07T09:04:09.005Z,98591.41
2022-08-07T09:06:54.942Z,98582.03
2022-08-07T09:09:56.548Z,98584.03
2022-08-07T09:12:53.250Z,98597.72
2022-08-07T09:16:23.130Z,98592.91
2022-08-07T09:19:53.707Z,98608.25
2022-08-07T09:24:33.303Z,98597.59
2022-08-07T09:25:28.562Z,98590.91
2022-08-07T09:30:01.464Z,98591.50
2022-08-07T09:31:10.813Z,98600.81
2022-08-07T09:34:10.218Z,98585.13
2022-08-07T09:36:50.781Z,98578.97
2022-08-07T09:39:55.365Z,98582.66
2022-08-07T09:42:50.440Z,98580.41
2022-08-07T09:47:25.813Z,98577.53
2022-08-07T09:50:01.949Z,98585.63
2022-08-07T09:52:16.586Z,98574.66
2022-08-07T09:54:57.193Z,98568.00
2022-08-07T09:58:03.844Z,98565.31
2022-08-07T10:00:57.401Z,98563.22
2022-08-07T10:04:06.115Z,98569.50
2022-08-07T10:07:25.678Z,98563.66
2022-08-07T10:10:28.309Z,98544.91
2022-08-07T10:14:00.686Z,98549.56
2022-08-07T10:17:14.220Z,98554.66
2022-08-07T10:20:30.616Z,98544.03
2022-08-07T10:24:06.811Z,98542.56
2022-08-07T10:27:03.050Z,98540.94
2022-08-07T10:30:03.923Z,98535.75
2022-08-07T10:33:14.910Z,98523.00
2022-08-07T10:36:17.858Z,98529.91
2022-08-07T10:39:08.481Z,98526.84
2022-08-07T10:41:53.804Z,98530.16
2022-08-07T10:44:46.282Z,98532.75
2022-08-07T10:47:53.929Z,98528.88
2022-08-07T10:50:32.337Z,98529.13
2022-08-07T10:53:13.895Z,98515.84
2022-08-07T10:56:02.248Z,98526.97
2022-08-07T10:58:59.463Z,98525.63
2022-08-07T11:01:51.332Z,98517.00
2022-08-07T11:04:58.618Z,98529.09
2022-08-07T11:07:58.441Z,98505.09
2022-08-07T11:10:43.591Z,98506.09
2022-08-07T11:14:42.056Z,98505.41
2022-08-07T11:16:30.612Z,98497.06
2022-08-07T11:19:12.615Z,98494.44
2022-08-07T11:21:52.949Z,98494.72
2022-08-07T11:24:33.150Z,98481.16
2022-08-07T11:27:16.656Z,98487.09
2022-08-07T11:30:18.077Z,98478.66
2022-08-07T11:33:07.950Z,98475.31
2022-08-07T11:36:01.359Z,98477.34
2022-08-07T11:38:50.574Z,98479.41
2022-08-07T11:41:29.641Z,98481.22
2022-08-07T11:44:35.550Z,98470.63
2022-08-07T11:47:20.742Z,98466.22
2022-08-07T11:50:33.548Z,98476.59
2022-08-07T11:53:23.748Z,98470.63
2022-08-07T11:56:26.988Z,98455.09
2022-08-07T12:00:10.444Z,98461.69
2022-08-07T12:02:49.832Z,98460.94
2022-08-07T12:05:47.480Z,98462.00
2022-08-07T12:08:34.388Z,98468.06
2022-08-07T12:11:21.228Z,98453.56
2022-08-07T12:14:00.817Z,98450.81
2022-08-07T12:16:39.401Z,98451.81
2022-08-07T12:19:22.568Z,98441.16
2022-08-07T12:22:38.759Z,98440.16
2022-08-07T12:26:03.083Z,98443.66
2022-08-07T12:28:30.806Z,98422.03
2022-08-07T12:31:09.852Z,98427.31
2022-08-07T12:34:01.424Z,98429.88
2022-08-07T12:36:37.530Z,98425.25
2022-08-07T12:39:43.961Z,98429.69
2022-08-07T12:42:07.035Z,98415.56
2022-08-07T12:44:44.903Z,98420.84
2022-08-07T12:47:31.589Z,98426.94
2022-08-07T12:50:33.713Z,98414.00
2022-08-07T12:53:22.060Z,98418.13
2022-08-07T12:56:04.258Z,98426.91
2022-08-07T12:58:46.868Z,98423.75
2022-08-07T13:01:45.268Z,98415.78
2022-08-07T13:04:49.203Z,98413.38
2022-08-07T13:08:18.921Z,98408.94
2022-08-07T13:11:08.814Z,98408.06
2022-08-07T13:13:58.736Z,98402.41
2022-08-07T13:16:39.761Z,98394.81
2022-08-07T13:19:35.145Z,98394.63
2022-08-07T13:22:27.912Z,98387.56
2022-08-07T13:25:09.169Z,98389.78
2022-08-07T13:28:12.786Z,98381.84
2022-08-07T13:30:40.811Z,98381.81
2022-08-07T13:34:31.722Z,98388.63
2022-08-07T13:36:28.693Z,98384.34
2022-08-07T13:39:12.749Z,98375.63
2022-08-07T13:41:54.666Z,98367.72
2022-08-07T13:44:34.431Z,98380.22
2022-08-07T13:47:15.044Z,98372.88
2022-08-07T13:50:35.518Z,98368.97
2022-08-07T13:52:47.022Z,98356.88
2022-08-07T13:55:26.450Z,98359.19
2022-08-07T13:58:27.725Z,98361.16
2022-08-07T14:01:10.711Z,98362.88
2022-08-07T14:04:07.053Z,98351.59
2022-08-07T14:06:40.860Z,98347.78
2022-08-07T14:10:01.533Z,98333.38
2022-08-07T14:12:27.609Z,98340.00
2022-08-07T14:15:10.499Z,98337.41
2022-08-07T14:18:16.143Z,98337.28
2022-08-07T14:20:48.824Z,98337.78
2022-08-07T14:23:59.053Z,98333.97
2022-08-07T14:30:05.353Z,98330.16
2022-08-07T14:32:16.183Z,98328.09
2022-08-07T14:34:52.485Z,98317.16
2022-08-07T14:37:36.278Z,98324.13
2022-08-07T14:40:26.615Z,98327.00
2022-08-07T14:43:58.778Z,98322.47
2022-08-07T14:45:59.125Z,98326.22
2022-08-07T14:48:35.590Z,98320.97
2022-08-07T14:51:15.747Z,98320.81
2022-08-07T14:54:09.693Z,98324.34
2022-08-07T14:56:46.211Z,98327.25
2022-08-07T15:00:05.215Z,98332.69
2022-08-07T15:02:33.014Z,98327.88
2022-08-07T15:05:19.798Z,98320.25
2022-08-07T15:08:01.435Z,98322.44
2022-08-07T15:10:32.342Z,98304.47
2022-08-07T15:16:11.116Z,98318.22
2022-08-07T15:18:48.988Z,98309.28
2022-08-07T15:21:44.731Z,98306.06
2022-08-07T15:27:19.284Z,98307.91
2022-08-07T15:30:10.051Z,98314.50
2022-08-07T15:33:03.702Z,98305.50
2022-08-07T15:36:04.932Z,98306.72
2022-08-07T15:38:51.287Z,98302.28
2022-08-07T15:42:44.320Z,98299.09
2022-08-07T15:44:24.206Z,98298.53
2022-08-07T15:47:03.376Z,98295.81
2022-08-07T15:50:05.177Z,98300.75
2022-08-07T15:52:37.184Z,98300.78
2022-08-07T15:55:15.482Z,98294.31
2022-08-07T15:58:00.157Z,98279.94
2022-08-07T16:00:39.999Z,98294.69
2022-08-07T16:03:22.132Z,98283.44
2022-08-07T16:06:11.889Z,98285.75
2022-08-07T16:08:47.331Z,98287.88
2022-08-07T16:11:47.492Z,98282.81
2022-08-07T16:14:23.167Z,98273.06
2022-08-07T16:17:14.852Z,98278.44
2022-08-07T16:20:34.010Z,98279.59
2022-08-07T16:23:53.509Z,98278.13
2022-08-07T16:26:59.528Z,98267.78
2022-08-07T16:30:17.756Z,98271.63
2022-08-07T16:34:02.895Z,98280.00
2022-08-07T16:36:31.116Z,98269.94
2022-08-07T16:39:40.178Z,98275.34
2022-08-07T16:42:44.427Z,98275.44
2022-08-07T16:46:40.936Z,98275.91
2022-08-07T16:50:20.625Z,98272.72
2022-08-07T16:52:52.525Z,98275.09
2022-08-07T16:55:47.468Z,98265.03
2022-08-07T16:58:48.009Z,98254.06
2022-08-07T17:01:41.386Z,98257.59
2022-08-07T17:04:29.583Z,98261.78
2022-08-07T17:07:13.548Z,98266.16
2022-08-07T17:10:07.091Z,98264.31
2022-08-07T17:12:53.231Z,98260.56
2022-08-07T17:15:44.367Z,98259.84
2022-08-07T17:18:35.133Z,98257.38
2022-08-07T17:21:18.789Z,98263.25
2022-08-07T17:24:07.021Z,98266.22
2022-08-07T17:26:51.401Z,98259.81
2022-08-07T17:30:15.157Z,98269.94
2022-08-07T17:32:52.482Z,98280.75
2022-08-07T17:35:50.031Z,98283.06
2022-08-07T17:38:33.060Z,98277.16
2022-08-07T17:42:02.663Z,98277.25
2022-08-07T17:44:15.550Z,98278.81
2022-08-07T17:47:09.072Z,98279.75
2022-08-07T17:49:58.845Z,98290.00
2022-08-07T17:52:39.991Z,98283.03
2022-08-07T17:55:55.739Z,98283.94
2022-08-07T17:58:11.396Z,98274.81
2022-08-07T18:01:20.817Z,98282.19
2022-08-07T18:04:16.447Z,98265.38
2022-08-07T18:07:20.841Z,98272.44
2022-08-07T18:10:05.945Z,98275.69
2022-08-07T18:12:54.067Z,98276.19
2022-08-07T18:15:33.111Z,98280.91
2022-08-07T18:18:44.715Z,98284.59
2022-08-07T18:21:38.249Z,98285.84
2022-08-07T18:24:09.889Z,98285.59
2022-08-07T18:27:22.934Z,98291.06
2022-08-07T18:30:31.440Z,98293.06
2022-08-07T18:33:39.430Z,98298.25
2022-08-07T18:36:42.066Z,98304.47
2022-08-07T18:40:06.407Z,98312.97
2022-08-07T18:42:44.494Z,98313.75
2022-08-07T18:45:44.123Z,98320.47
2022-08-07T18:50:30.354Z,98332.13
2022-08-07T18:52:37.861Z,98334.03
2022-08-07T18:54:31.234Z,98335.44
2022-08-07T18:57:36.788Z,98342.59
2022-08-07T19:00:34.168Z,98349.38
2022-08-07T19:03:18.189Z,98354.91
2022-08-07T19:06:04.761Z,98355.00
2022-08-07T19:08:52.646Z,98352.66
2022-08-07T19:12:05.065Z,98352.97
2022-08-07T19:14:55.447Z,98364.97
2022-08-07T19:17:59.385Z,98368.09
2022-08-07T19:21:08.525Z,98364.94
2022-08-07T19:23:57.851Z,98371.19
2022-08-07T19:27:16.781Z,98380.31
2022-08-07T19:30:57.162Z,98384.19
2022-08-07T19:32:34.564Z,98385.50
2022-08-07T19:35:22.583Z,98382.09
2022-08-07T19:38:01.673Z,98378.66
2022-08-07T19:40:49.388Z,98383.56
2022-08-07T19:43:44.119Z,98387.66
2022-08-07T19:46:32.353Z,98379.84
2022-08-07T19:49:09.801Z,98381.22
2022-08-07T19:51:52.343Z,98390.97
2022-08-07T19:54:31.146Z,98393.47
2022-08-07T19:57:59.982Z,98395.53
2022-08-07T20:00:10.166Z,98394.66
2022-08-07T20:02:52.248Z,98391.66
2022-08-07T20:05:29.425Z,98388.31
2022-08-07T20:08:06.641Z,98387.94
2022-08-07T20:10:55.211Z,98392.16
2022-08-07T20:13:35.783Z,98398.41
2022-08-07T20:16:15.867Z,98390.34
2022-08-07T20:19:04.622Z,98389.97
2022-08-07T20:21:42.171Z,98389.25
2022-08-07T20:24:22.529Z,98387.09
2022-08-07T20:26:56.518Z,98387.25
2022-08-07T20:29:49.494Z,98376.72
2022-08-07T20:32:27.024Z,98384.53
2022-08-07T20:35:16.302Z,98385.41
2022-08-07T20:37:58.264Z,98386.06
2022-08-07T20:40:35.031Z,98388.63
2022-08-07T20:43:09.657Z,98382.63
2022-08-07T20:46:25.958Z,98375.56
2022-08-07T20:49:54.052Z,98379.91
2022-08-07T20:51:40.683Z,98378.66
2022-08-07T20:54:30.272Z,98381.78
2022-08-07T20:57:10.205Z,98386.50
2022-08-07T21:00:08.016Z,98381.72
2022-08-07T21:02:54.483Z,98373.53
2022-08-07T21:05:52.694Z,98374.78
2022-08-07T21:08:36.953Z,98375.38
2022-08-07T21:11:14.784Z,98379.16
2022-08-07T21:14:16.821Z,98382.19
2022-08-07T21:16:56.797Z,98382.25
2022-08-07T21:19:51.616Z,98380.88
2022-08-07T21:22:35.930Z,98374.72
2022-08-07T21:25:17.593Z,98378.16
2022-08-07T21:28:07.751Z,98384.34
2022-08-07T21:30:57.993Z,98378.31
2022-08-07T21:33:41.928Z,98376.38
2022-08-07T21:36:31.451Z,98374.34
2022-08-07T21:39:45.844Z,98379.50
2022-08-07T21:46:09.351Z,98385.09
2022-08-07T21:48:34.347Z,98390.38
2022-08-07T21:51:32.616Z,98391.88
2022-08-07T21:54:21.642Z,98389.13
2022-08-07T21:57:31.258Z,98397.16
2022-08-07T22:00:22.085Z,98407.09
2022-08-07T22:03:06.752Z,98408.41
2022-08-07T22:05:52.594Z,98410.47
2022-08-07T22:08:25.903Z,98415.88
2022-08-07T22:11:08.397Z,98418.47
2022-08-07T22:13:50.953Z,98419.72
2022-08-07T22:16:44.320Z,98415.13
2022-08-07T22:19:27.081Z,98412.78
2022-08-07T22:22:20.827Z,98403.84
2022-08-07T22:25:08.167Z,98405.28
2022-08-07T22:28:06.375Z,98405.75
2022-08-07T22:30:53.356Z,98408.91
2022-08-07T22:33:50.988Z,98408.81
2022-08-07T22:36:39.912Z,98408.25
2022-08-07T22:39:24.080Z,98408.91
2022-08-07T22:42:18.973Z,98404.66
2022-08-07T22:44:59.885Z,98408.56
2022-08-07T22:48:31.301Z,98404.06
2022-08-07T22:51:36.660Z,98410.31
2022-08-07T22:54:35.752Z,98409.09
2022-08-07T22:57:26.066Z,98412.28
2022-08-07T23:00:07.958Z,98409.66
2022-08-07T23:02:56.999Z,98409.81
2022-08-07T23:06:09.633Z,98407.09
2022-08-07T23:10:01.218Z,98406.66
2022-08-07T23:12:11.979Z,98406.97
2022-08-07T23:15:21.863Z,98410.63
2022-08-07T23:18:42.378Z,98403.16
2022-08-07T23:21:29.994Z,98409.94
2022-08-07T23:24:45.747Z,98412.69
2022-08-07T23:28:21.105Z,98411.91
2022-08-07T23:31:06.598Z,98406.19
2022-08-07T23:34:35.252Z,98412.03
2022-08-07T23:37:29.489Z,98420.19
2022-08-07T23:40:17.327Z,98419.69
2022-08-07T23:43:16.673Z,98414.97
2022-08-07T23:46:10.650Z,98413.38
2022-08-07T23:49:18.150Z,98402.69
2022-08-07T23:52:58.835Z,98409.41
2022-08-07T23:55:00.982Z,98405.50
2022-08-07T23:57:38.886Z,98408.78
